Time;durP1;ratioP1;P1;durP2;ratioP2;P2;SDS_P1;SDS_P2;PMS_P1;PMS_P2;Temp;Humidity;BMP_temperature;BMP_pressure;BME280_temperature;BME280_humidity;BME280_pressure;Samples;Min_cycle;Max_cycle;Signal;HPM_P1;HPM_P2
2021/10/08 00:00:34;;;;;;;1.40;1.20;;;6.20;74.50;;;;;;5054564;28;20447;-86
2021/10/08 00:03:00;;;;;;;2.78;1.67;;;6.20;74.20;;;;;;5054421;28;20067;-86
2021/10/08 00:05:25;;;;;;;2.85;1.92;;;6.20;75.30;;;;;;5054243;28;20471;-85
2021/10/08 00:07:51;;;;;;;3.83;1.80;;;6.10;74.90;;;;;;5054378;28;20045;-85
2021/10/08 00:10:17;;;;;;;4.80;2.13;;;6.10;75.30;;;;;;5053952;28;20025;-85
2021/10/08 00:12:43;;;;;;;3.85;1.70;;;6.10;75.20;;;;;;5052987;28;20029;-86
2021/10/08 00:15:09;;;;;;;1.70;1.60;;;6.10;74.80;;;;;;5054228;28;20050;-85
2021/10/08 00:17:34;;;;;;;5.47;2.42;;;6.10;75.10;;;;;;5054143;28;20464;-85
2021/10/08 00:20:00;;;;;;;1.50;1.33;;;6.00;75.10;;;;;;5052757;28;20070;-85
2021/10/08 00:22:26;;;;;;;1.45;1.35;;;6.00;75.60;;;;;;5053932;28;20017;-85
2021/10/08 00:24:51;;;;;;;3.72;2.08;;;6.00;75.70;;;;;;5052503;28;20016;-85
2021/10/08 00:27:17;;;;;;;2.60;2.30;;;6.00;75.70;;;;;;5053719;28;20031;-86
2021/10/08 00:29:43;;;;;;;4.80;3.13;;;6.00;75.60;;;;;;5052748;28;20546;-85
2021/10/08 00:32:08;;;;;;;1.77;1.60;;;5.90;76.30;;;;;;5053960;28;20032;-85
2021/10/08 00:34:34;;;;;;;2.05;1.50;;;5.90;76.30;;;;;;5054208;28;20025;-86
2021/10/08 00:37:00;;;;;;;4.45;2.90;;;5.90;76.40;;;;;;5053756;28;20025;-85
2021/10/08 00:39:26;;;;;;;4.00;2.25;;;5.90;76.20;;;;;;5053621;28;20024;-85
2021/10/08 00:41:52;;;;;;;3.78;2.47;;;5.90;76.60;;;;;;5053381;28;20021;-86
2021/10/08 00:44:18;;;;;;;3.95;2.30;;;5.90;76.60;;;;;;5053599;28;20096;-85
2021/10/08 00:46:44;;;;;;;2.03;1.70;;;5.90;77.00;;;;;;5052359;28;20119;-86
2021/10/08 00:49:11;;;;;;;3.65;2.08;;;5.90;76.70;;;;;;5053210;28;20049;-85
2021/10/08 00:51:37;;;;;;;4.57;2.20;;;5.90;77.40;;;;;;5052707;28;20116;-85
2021/10/08 00:54:02;;;;;;;4.85;2.42;;;5.90;77.30;;;;;;5052504;28;20501;-85
2021/10/08 00:56:30;;;;;;;7.75;3.13;;;5.90;77.30;;;;;;5053939;28;20041;-86
2021/10/08 00:58:55;;;;;;;2.60;2.05;;;5.90;77.30;;;;;;5053626;28;20398;-85
2021/10/08 01:01:21;;;;;;;5.43;2.35;;;5.90;77.10;;;;;;5053609;28;20025;-85
2021/10/08 01:03:47;;;;;;;4.07;1.80;;;5.90;77.20;;;;;;5052627;28;20025;-85
2021/10/08 01:06:13;;;;;;;3.97;2.67;;;5.90;77.40;;;;;;5053388;28;20013;-86
2021/10/08 01:08:39;;;;;;;3.53;2.30;;;5.90;77.70;;;;;;5053535;28;20021;-86
2021/10/08 01:11:05;;;;;;;4.78;2.45;;;5.90;77.70;;;;;;5054886;28;20025;-86
2021/10/08 01:13:31;;;;;;;4.30;2.85;;;5.90;78.10;;;;;;5057794;28;20043;-86
2021/10/08 01:15:57;;;;;;;5.80;2.67;;;5.90;78.20;;;;;;5057398;28;20099;-86
2021/10/08 01:18:26;;;;;;;3.78;2.17;;;5.90;78.70;;;;;;5055983;28;20363;-85
2021/10/08 01:20:52;;;;;;;3.78;2.22;;;5.90;79.00;;;;;;5056437;28;20374;-85
2021/10/08 01:23:18;;;;;;;6.10;3.13;;;5.90;78.50;;;;;;5057174;28;20108;-86
2021/10/08 01:25:44;;;;;;;3.75;2.33;;;5.90;78.90;;;;;;5055830;28;20341;-86
2021/10/08 01:28:09;;;;;;;3.88;2.58;;;5.90;79.10;;;;;;5057203;28;20061;-85
2021/10/08 01:30:36;;;;;;;5.10;2.95;;;5.90;79.20;;;;;;5057159;28;20037;-85
2021/10/08 01:33:04;;;;;;;3.72;2.45;;;5.90;79.50;;;;;;5057275;28;20021;-85
2021/10/08 01:35:30;;;;;;;5.60;3.17;;;5.90;79.20;;;;;;5057079;28;20351;-85
2021/10/08 01:37:55;;;;;;;6.78;3.28;;;5.90;79.50;;;;;;5056816;28;20104;-86
2021/10/08 01:40:22;;;;;;;3.67;2.72;;;5.90;79.10;;;;;;5055843;28;20024;-85
2021/10/08 01:42:47;;;;;;;4.25;2.63;;;5.90;79.30;;;;;;5057033;28;20012;-86
2021/10/08 01:45:14;;;;;;;3.83;2.70;;;5.90;79.10;;;;;;5055564;28;20115;-85
2021/10/08 01:47:40;;;;;;;8.07;2.30;;;6.00;79.00;;;;;;5056755;28;20143;-85
2021/10/08 01:50:07;;;;;;;4.00;2.35;;;5.90;79.10;;;;;;5056317;28;20135;-85
2021/10/08 01:52:33;;;;;;;3.78;1.83;;;5.90;79.60;;;;;;5056686;28;20032;-85
2021/10/08 01:54:58;;;;;;;4.50;2.20;;;5.90;79.10;;;;;;5056789;28;20016;-86
2021/10/08 01:57:25;;;;;;;4.63;2.60;;;5.90;79.20;;;;;;5057011;28;20347;-85
2021/10/08 01:59:52;;;;;;;3.90;2.30;;;5.90;79.00;;;;;;5056894;28;20024;-86
2021/10/08 02:02:18;;;;;;;6.28;2.65;;;5.90;79.60;;;;;;5056406;28;20017;-86
2021/10/08 02:04:44;;;;;;;4.50;2.92;;;5.80;79.10;;;;;;5056651;28;20070;-85
2021/10/08 02:07:09;;;;;;;2.90;1.95;;;5.80;79.60;;;;;;5056315;28;20032;-86
2021/10/08 02:09:35;;;;;;;3.90;2.50;;;5.80;79.50;;;;;;5055195;28;20079;-86
2021/10/08 02:12:01;;;;;;;3.85;2.50;;;5.80;79.70;;;;;;5056526;28;20467;-85
2021/10/08 02:14:26;;;;;;;4.80;2.95;;;5.70;79.40;;;;;;5055089;28;20052;-86
2021/10/08 02:16:52;;;;;;;6.95;3.10;;;5.80;79.70;;;;;;5054989;28;20371;-85
2021/10/08 02:19:18;;;;;;;6.25;2.35;;;5.70;79.60;;;;;;5056390;28;20032;-85
2021/10/08 02:21:44;;;;;;;5.47;3.22;;;5.70;79.50;;;;;;5055771;28;20021;-85
2021/10/08 02:24:09;;;;;;;4.18;2.75;;;5.80;79.50;;;;;;5055033;28;20028;-86
2021/10/08 02:26:35;;;;;;;4.18;2.45;;;5.80;79.40;;;;;;5056118;28;20367;-85
2021/10/08 02:29:01;;;;;;;3.80;2.30;;;5.80;79.80;;;;;;5056248;28;20025;-86
2021/10/08 02:31:28;;;;;;;4.72;3.00;;;5.80;80.00;;;;;;5056040;28;20032;-85
2021/10/08 02:33:54;;;;;;;3.75;3.05;;;5.80;80.20;;;;;;5056194;28;20452;-86
2021/10/08 02:36:19;;;;;;;8.68;2.90;;;5.80;79.80;;;;;;5054701;28;20017;-86
2021/10/08 02:38:45;;;;;;;3.17;2.30;;;5.80;79.60;;;;;;5056197;28;20440;-86
2021/10/08 02:41:11;;;;;;;4.75;3.15;;;5.90;79.70;;;;;;5056084;28;20456;-85
2021/10/08 02:43:37;;;;;;;3.05;2.10;;;5.90;79.80;;;;;;5055879;28;20444;-86
2021/10/08 02:46:03;;;;;;;7.35;3.60;;;5.90;79.50;;;;;;5055705;28;20028;-85
2021/10/08 02:48:28;;;;;;;4.60;2.60;;;5.80;79.50;;;;;;5055743;28;20039;-85
2021/10/08 02:50:55;;;;;;;3.13;2.53;;;5.90;79.30;;;;;;5053814;28;20045;-85
2021/10/08 02:53:20;;;;;;;5.95;2.92;;;5.90;79.00;;;;;;5054434;28;20024;-85
2021/10/08 02:55:47;;;;;;;5.93;2.95;;;5.80;79.00;;;;;;5055811;28;20021;-85
2021/10/08 02:58:12;;;;;;;4.05;3.50;;;5.80;79.10;;;;;;5055958;28;20017;-85
2021/10/08 03:00:38;;;;;;;6.55;2.42;;;5.80;79.00;;;;;;5055743;28;20463;-85
2021/10/08 03:03:04;;;;;;;6.97;3.03;;;5.80;79.10;;;;;;5055425;28;20418;-85
2021/10/08 03:05:30;;;;;;;6.78;4.10;;;5.80;79.20;;;;;;5055170;28;20032;-86
2021/10/08 03:07:55;;;;;;;3.92;2.67;;;5.70;79.30;;;;;;5055540;28;20017;-85
2021/10/08 03:10:21;;;;;;;3.58;3.00;;;5.70;79.10;;;;;;5055215;28;20127;-85
2021/10/08 03:12:47;;;;;;;4.40;2.55;;;5.70;79.40;;;;;;5055482;28;20024;-85
2021/10/08 03:15:15;;;;;;;2.95;2.00;;;5.70;79.50;;;;;;5055515;28;20025;-86
2021/10/08 03:17:41;;;;;;;6.18;2.88;;;5.60;79.30;;;;;;5054889;28;20021;-85
2021/10/08 03:20:08;;;;;;;5.75;2.40;;;5.60;79.30;;;;;;5055096;28;20456;-85
2021/10/08 03:22:33;;;;;;;6.72;3.08;;;5.60;79.30;;;;;;5053617;28;20459;-85
2021/10/08 03:24:59;;;;;;;8.13;2.55;;;5.50;79.30;;;;;;5053523;28;20032;-85
2021/10/08 03:27:25;;;;;;;6.35;3.50;;;5.50;79.40;;;;;;5055099;28;20024;-85
2021/10/08 03:29:51;;;;;;;4.97;3.30;;;5.40;79.20;;;;;;5054832;28;20033;-86
2021/10/08 03:32:17;;;;;;;4.78;2.83;;;5.40;79.50;;;;;;5054767;28;20021;-85
2021/10/08 03:34:43;;;;;;;3.47;2.30;;;5.40;79.30;;;;;;5052546;28;20063;-86
2021/10/08 03:37:12;;;;;;;8.88;2.75;;;5.30;79.50;;;;;;5053489;28;20029;-85
2021/10/08 03:39:40;;;;;;;4.05;3.35;;;5.30;79.40;;;;;;5054681;28;20025;-85
2021/10/08 03:42:06;;;;;;;4.25;3.33;;;5.30;79.50;;;;;;5054591;28;20468;-85
2021/10/08 03:44:36;;;;;;;5.13;2.33;;;5.20;79.70;;;;;;5053547;28;20021;-85
2021/10/08 03:47:12;;;;;;;5.97;3.00;;;5.20;79.50;;;;;;5054432;28;20025;-86
2021/10/08 03:49:38;;;;;;;6.40;2.38;;;5.10;79.70;;;;;;5052778;28;20055;-85
2021/10/08 03:52:04;;;;;;;2.63;2.40;;;5.10;79.70;;;;;;5054299;28;20025;-85
2021/10/08 03:54:29;;;;;;;5.60;4.05;;;5.10;79.50;;;;;;5052901;28;20064;-85
2021/10/08 03:56:55;;;;;;;3.67;2.28;;;5.00;79.50;;;;;;5054252;28;20024;-85
2021/10/08 03:59:21;;;;;;;3.58;2.13;;;5.00;79.50;;;;;;5053101;28;20108;-85
2021/10/08 04:01:47;;;;;;;6.40;3.55;;;5.00;79.50;;;;;;5054345;28;20419;-86
2021/10/08 04:04:12;;;;;;;4.82;3.03;;;5.00;79.60;;;;;;5054465;28;20395;-85
2021/10/08 04:06:38;;;;;;;5.43;3.40;;;4.90;79.40;;;;;;5054695;28;20363;-85
2021/10/08 04:09:06;;;;;;;6.55;3.33;;;5.00;79.70;;;;;;5054404;28;20029;-85
2021/10/08 04:11:32;;;;;;;4.00;2.70;;;4.90;79.70;;;;;;5054195;28;20083;-85
2021/10/08 04:13:58;;;;;;;4.65;2.60;;;4.90;79.90;;;;;;5053828;28;20025;-85
2021/10/08 04:16:24;;;;;;;3.50;2.20;;;4.90;79.70;;;;;;5053633;28;20023;-86
2021/10/08 04:18:50;;;;;;;7.55;3.53;;;4.90;79.70;;;;;;5053631;28;20025;-85
2021/10/08 04:21:16;;;;;;;8.48;3.35;;;4.90;80.50;;;;;;5053606;28;20078;-86
2021/10/08 04:23:43;;;;;;;8.68;2.70;;;4.90;80.10;;;;;;5054109;28;20024;-85
2021/10/08 04:26:09;;;;;;;6.65;3.63;;;4.90;79.80;;;;;;5053612;28;20100;-85
2021/10/08 04:28:35;;;;;;;6.82;3.35;;;4.90;80.00;;;;;;5052465;28;20059;-85
2021/10/08 04:31:01;;;;;;;3.75;2.70;;;5.00;80.20;;;;;;5053266;28;20048;-86
2021/10/08 04:33:28;;;;;;;5.00;2.97;;;5.00;80.20;;;;;;5053785;28;20527;-86
2021/10/08 04:35:59;;;;;;;6.55;3.45;;;5.00;80.10;;;;;;5053495;28;20021;-85
2021/10/08 04:38:29;;;;;;;4.32;2.80;;;5.00;80.00;;;;;;5053440;28;20107;-84
2021/10/08 04:40:55;;;;;;;3.75;2.70;;;5.00;80.20;;;;;;5051790;28;20025;-86
2021/10/08 04:43:20;;;;;;;6.95;2.78;;;5.00;80.00;;;;;;5052070;28;20146;-86
2021/10/08 04:45:46;;;;;;;4.47;2.72;;;5.10;79.90;;;;;;5052718;28;20096;-85
2021/10/08 04:48:12;;;;;;;6.57;2.15;;;5.10;79.80;;;;;;5053709;28;20048;-85
2021/10/08 04:50:38;;;;;;;2.05;1.85;;;5.10;79.60;;;;;;5052966;28;20167;-85
2021/10/08 04:53:18;;;;;;;4.40;3.03;;;5.20;79.50;;;;;;5052800;28;20463;-86
2021/10/08 04:55:45;;;;;;;3.88;3.05;;;5.20;79.40;;;;;;5053205;28;20017;-87
2021/10/08 04:58:11;;;;;;;4.22;3.75;;;5.20;79.30;;;;;;5052899;28;20036;-85
2021/10/08 05:00:37;;;;;;;4.78;3.35;;;5.20;79.30;;;;;;5051740;28;20075;-85
2021/10/08 05:03:11;;;;;;;4.15;2.47;;;5.30;79.10;;;;;;5052743;28;20071;-85
2021/10/08 05:05:37;;;;;;;;;;;5.30;79.20;;;;;;5051717;28;20414;-85
2021/10/08 05:08:04;;;;;;;3.20;2.20;;;5.30;79.20;;;;;;5052406;28;19940;-85
2021/10/08 05:10:30;;;;;;;4.78;3.17;;;5.30;79.10;;;;;;5051131;28;20475;-85
2021/10/08 05:12:56;;;;;;;4.55;3.15;;;5.40;78.90;;;;;;5050973;28;20025;-85
2021/10/08 05:15:21;;;;;;;4.53;2.88;;;5.40;78.70;;;;;;5052390;28;20024;-85
2021/10/08 05:17:47;;;;;;;6.40;3.03;;;5.40;78.80;;;;;;5052743;28;20448;-85
2021/10/08 05:20:13;;;;;;;4.57;2.50;;;5.50;78.90;;;;;;5052798;28;20361;-85
2021/10/08 05:22:38;;;;;;;4.47;2.95;;;5.50;78.80;;;;;;5052087;28;20412;-84
2021/10/08 05:25:05;;;;;;;7.03;2.70;;;5.50;78.90;;;;;;5052006;28;20313;-85
2021/10/08 05:27:31;;;;;;;4.88;2.88;;;5.60;78.70;;;;;;5052657;28;20482;-85
2021/10/08 05:29:56;;;;;;;6.90;2.30;;;5.80;78.40;;;;;;5052423;28;20028;-85
2021/10/08 05:32:22;;;;;;;5.80;3.38;;;5.80;78.30;;;;;;5051172;28;20519;-86
2021/10/08 05:34:48;;;;;;;4.95;2.92;;;5.90;78.00;;;;;;5050860;28;20029;-85
2021/10/08 05:37:14;;;;;;;6.68;3.08;;;6.10;77.30;;;;;;5051775;28;20131;-85
2021/10/08 05:39:39;;;;;;;5.93;3.30;;;6.20;76.90;;;;;;5051995;28;20390;-86
2021/10/08 05:42:05;;;;;;;7.65;3.63;;;6.30;76.30;;;;;;5050961;28;20052;-86
2021/10/08 05:44:31;;;;;;;3.75;3.17;;;6.40;75.90;;;;;;5051056;28;20017;-86
2021/10/08 05:46:57;;;;;;;8.43;3.60;;;6.50;75.50;;;;;;5052604;28;20021;-86
2021/10/08 05:49:22;;;;;;;8.40;3.88;;;6.50;75.30;;;;;;5051881;28;20123;-86
2021/10/08 05:51:48;;;;;;;5.00;3.08;;;6.60;75.20;;;;;;5051028;28;20029;-84
2021/10/08 05:54:14;;;;;;;4.80;2.78;;;6.70;75.00;;;;;;5052299;28;20017;-87
2021/10/08 05:56:40;;;;;;;4.00;3.17;;;6.80;74.30;;;;;;5052344;28;20024;-86
2021/10/08 05:59:05;;;;;;;7.10;2.70;;;6.90;74.10;;;;;;5055230;28;20103;-86
2021/10/08 06:01:31;;;;;;;5.40;3.30;;;7.00;73.60;;;;;;5055251;28;20036;-85
2021/10/08 06:03:58;;;;;;;4.75;3.58;;;7.10;73.20;;;;;;5055092;28;20025;-85
2021/10/08 06:06:24;;;;;;;5.03;2.67;;;7.10;73.30;;;;;;5053807;28;20021;-86
2021/10/08 06:08:49;;;;;;;3.65;2.58;;;7.20;73.10;;;;;;5053826;28;20021;-86
2021/10/08 06:11:16;;;;;;;11.02;3.40;;;7.20;73.00;;;;;;5055703;28;20041;-86
2021/10/08 06:13:42;;;;;;;4.78;2.85;;;7.30;72.70;;;;;;5055309;28;20525;-87
2021/10/08 06:16:08;;;;;;;7.03;3.42;;;7.40;72.40;;;;;;5055689;28;20100;-87
2021/10/08 06:18:33;;;;;;;7.07;3.78;;;7.40;72.20;;;;;;5054170;28;20052;-87
2021/10/08 06:20:59;;;;;;;2.90;2.60;;;7.40;72.20;;;;;;5087522;28;20021;-87
2021/10/08 06:23:25;;;;;;;5.68;2.22;;;7.40;72.10;;;;;;5055384;28;20094;-87
2021/10/08 06:25:51;;;;;;;7.03;3.58;;;7.40;72.10;;;;;;5055337;28;20339;-87
2021/10/08 06:28:16;;;;;;;5.38;3.50;;;7.40;72.00;;;;;;5055316;28;20028;-87
2021/10/08 06:30:42;;;;;;;7.00;4.15;;;7.50;71.90;;;;;;5053721;28;20029;-87
2021/10/08 06:33:07;;;;;;;4.40;3.00;;;7.60;71.60;;;;;;5055161;28;20021;-87
2021/10/08 06:35:33;;;;;;;6.88;3.38;;;7.70;71.40;;;;;;5054732;28;20056;-87
2021/10/08 06:37:59;;;;;;;6.15;2.83;;;7.60;70.80;;;;;;5054919;28;20052;-89
2021/10/08 06:40:26;;;;;;;3.95;2.70;;;7.60;71.10;;;;;;5051766;28;20029;-88
2021/10/08 06:42:51;;;;;;;4.78;3.28;;;7.60;71.10;;;;;;5053251;28;20069;-87
2021/10/08 06:45:17;;;;;;;6.35;3.88;;;7.70;71.00;;;;;;5055099;28;20021;-88
2021/10/08 06:47:43;;;;;;;5.43;3.40;;;7.70;71.00;;;;;;5052677;28;20049;-87
2021/10/08 06:50:09;;;;;;;7.90;2.88;;;7.80;70.20;;;;;;5053556;28;20053;-88
2021/10/08 06:52:35;;;;;;;8.77;3.47;;;7.90;70.00;;;;;;5053950;28;20028;-87
2021/10/08 06:55:00;;;;;;;4.43;3.05;;;8.10;70.10;;;;;;5054467;28;20045;-87
2021/10/08 06:57:27;;;;;;;5.90;3.28;;;8.30;69.90;;;;;;5054633;28;20356;-87
2021/10/08 06:59:53;;;;;;;9.48;3.78;;;8.50;69.10;;;;;;5054666;28;20078;-87
2021/10/08 07:02:19;;;;;;;3.70;2.90;;;8.60;67.80;;;;;;5053234;28;20028;-86
2021/10/08 07:04:44;;;;;;;2.45;2.20;;;8.70;67.50;;;;;;5053842;28;20021;-87
2021/10/08 07:07:10;;;;;;;3.13;2.70;;;8.60;67.60;;;;;;5053478;28;20025;-87
2021/10/08 07:09:36;;;;;;;13.85;3.53;;;8.70;67.60;;;;;;5052919;28;20086;-87
2021/10/08 07:12:02;;;;;;;4.38;3.22;;;8.80;67.40;;;;;;5060177;28;20025;-86
2021/10/08 07:14:27;;;;;;;5.22;3.00;;;8.90;66.80;;;;;;5057751;28;20487;-89
2021/10/08 07:16:55;;;;;;;3.75;2.80;;;9.00;66.60;;;;;;5053543;28;20060;-88
2021/10/08 07:19:25;;;;;;;4.55;3.10;;;9.10;66.00;;;;;;5054823;28;20021;-87
2021/10/08 07:22:01;;;;;;;5.45;3.40;;;9.20;65.80;;;;;;5054864;28;20100;-87
2021/10/08 07:24:26;;;;;;;5.55;3.05;;;9.30;65.20;;;;;;5042180;28;20024;-88
2021/10/08 07:26:52;;;;;;;4.60;3.30;;;9.30;65.00;;;;;;5055018;28;20016;-87
2021/10/08 07:29:18;;;;;;;5.90;3.08;;;9.30;65.00;;;;;;5043182;28;20079;-87
2021/10/08 07:31:44;;;;;;;6.75;3.05;;;9.30;64.40;;;;;;5051407;28;20099;-88
2021/10/08 07:34:09;;;;;;;5.18;3.45;;;9.30;64.60;;;;;;5033530;28;20029;-89
2021/10/08 07:36:35;;;;;;;5.03;3.22;;;9.40;64.00;;;;;;5033676;28;20048;-89
2021/10/08 07:39:03;;;;;;;7.40;3.95;;;9.50;63.50;;;;;;5045200;28;20017;-91
2021/10/08 07:41:28;;;;;;;3.10;2.75;;;9.70;63.00;;;;;;5054959;28;20070;-89
2021/10/08 07:43:54;;;;;;;4.03;3.25;;;9.80;62.70;;;;;;5054699;28;20025;-89
2021/10/08 07:46:20;;;;;;;5.78;2.88;;;9.90;62.50;;;;;;5054211;28;20017;-89
2021/10/08 07:48:45;;;;;;;3.45;2.45;;;9.90;62.60;;;;;;5051098;28;20036;-88
2021/10/08 07:51:11;;;;;;;5.18;2.75;;;9.90;62.40;;;;;;5051772;28;20090;-88
2021/10/08 07:53:37;;;;;;;3.30;2.35;;;9.90;62.20;;;;;;5057343;28;20024;-87
2021/10/08 07:56:03;;;;;;;5.43;3.25;;;9.80;62.30;;;;;;5063403;28;20016;-87
2021/10/08 07:58:29;;;;;;;4.38;2.67;;;9.90;62.30;;;;;;5058458;28;20044;-87
2021/10/08 08:00:56;;;;;;;4.40;3.00;;;9.80;61.70;;;;;;5053637;28;20423;-88
2021/10/08 08:03:23;;;;;;;3.47;2.63;;;9.80;61.90;;;;;;5052273;28;20025;-88
2021/10/08 08:05:50;;;;;;;4.30;3.03;;;9.80;61.80;;;;;;5052929;28;20084;-88
2021/10/08 08:08:16;;;;;;;6.22;3.17;;;9.80;61.60;;;;;;5036386;28;20025;-88
2021/10/08 08:10:42;;;;;;;12.60;3.03;;;9.70;61.90;;;;;;5033967;28;20026;-88
2021/10/08 08:13:08;;;;;;;4.90;2.97;;;9.80;61.90;;;;;;5031907;28;20022;-86
2021/10/08 08:15:37;;;;;;;4.00;2.40;;;9.80;62.10;;;;;;5051647;28;20382;-90
2021/10/08 08:18:03;;;;;;;8.30;2.97;;;9.90;62.40;;;;;;5050968;28;20047;-90
2021/10/08 08:20:29;;;;;;;2.55;2.05;;;9.90;62.80;;;;;;5048362;28;20427;-88
2021/10/08 08:22:54;;;;;;;3.13;2.38;;;9.90;63.20;;;;;;5049870;28;20117;-88
2021/10/08 08:25:20;;;;;;;4.72;2.33;;;9.90;63.90;;;;;;5051285;28;20093;-87
2021/10/08 08:27:46;;;;;;;4.60;2.45;;;9.80;64.40;;;;;;5042757;28;20313;-89
2021/10/08 08:30:12;;;;;;;5.72;2.47;;;9.70;65.30;;;;;;5045514;28;20024;-88
2021/10/08 08:32:38;;;;;;;4.65;2.50;;;9.70;66.00;;;;;;5052535;28;20021;-87
2021/10/08 08:35:05;;;;;;;4.40;3.03;;;9.80;66.40;;;;;;5052328;28;20033;-87
2021/10/08 08:37:31;;;;;;;8.02;3.40;;;9.90;66.70;;;;;;5048936;28;20032;-88
2021/10/08 08:39:59;;;;;;;5.72;3.03;;;10.10;65.80;;;;;;5051435;28;20032;-87
2021/10/08 08:42:25;;;;;;;4.35;2.83;;;10.10;64.90;;;;;;5053022;28;20017;-88
2021/10/08 08:44:51;;;;;;;6.72;2.92;;;10.20;64.80;;;;;;5051249;28;20032;-89
2021/10/08 08:47:19;;;;;;;5.22;2.83;;;10.30;64.30;;;;;;5051323;28;20069;-87
2021/10/08 08:49:46;;;;;;;4.72;3.00;;;10.40;64.40;;;;;;5050166;28;20434;-88
2021/10/08 08:52:12;;;;;;;5.70;4.07;;;10.50;63.80;;;;;;5050284;28;20025;-88
2021/10/08 08:54:40;;;;;;;4.47;2.60;;;10.50;63.40;;;;;;5051227;28;20021;-88
2021/10/08 08:57:14;;;;;;;3.95;2.47;;;10.50;62.70;;;;;;5052427;28;20080;-87
2021/10/08 08:59:58;;;;;;;7.10;3.63;;;10.50;62.40;;;;;;5051668;28;20024;-90
2021/10/08 09:02:26;;;;;;;5.18;2.90;;;10.60;62.00;;;;;;5053523;28;20095;-89
2021/10/08 09:04:53;;;;;;;7.35;2.67;;;10.60;62.70;;;;;;5054558;28;20028;-87
2021/10/08 09:07:20;;;;;;;3.38;2.72;;;10.70;62.30;;;;;;5051744;28;20037;-88
2021/10/08 09:09:46;;;;;;;7.93;2.97;;;10.90;62.20;;;;;;5051481;28;20116;-87
2021/10/08 09:12:13;;;;;;;7.72;2.80;;;11.00;61.00;;;;;;5051614;28;20045;-88
2021/10/08 09:14:39;;;;;;;16.23;3.05;;;11.20;60.80;;;;;;5050190;28;20032;-86
2021/10/08 09:17:19;;;;;;;6.85;2.60;;;11.30;60.10;;;;;;5051312;28;20021;-86
2021/10/08 09:20:00;;;;;;;5.35;2.70;;;11.40;59.90;;;;;;5051029;28;20036;-86
2021/10/08 09:22:43;;;;;;;5.20;2.83;;;11.50;59.20;;;;;;5075470;28;20456;-87
2021/10/08 09:25:30;;;;;;;4.75;2.92;;;11.60;59.20;;;;;;5050782;28;20075;-86
2021/10/08 09:28:06;;;;;;;6.72;2.53;;;11.80;58.50;;;;;;5051804;28;20025;-88
2021/10/08 09:30:48;;;;;;;8.10;2.60;;;11.90;58.20;;;;;;5050386;28;20032;-87
2021/10/08 09:33:21;;;;;;;2.53;2.20;;;12.10;57.60;;;;;;5057515;28;20020;-88
2021/10/08 09:35:54;;;;;;;3.65;2.50;;;12.20;57.40;;;;;;5037579;28;20049;-88
2021/10/08 09:38:20;;;;;;;2.77;2.10;;;12.30;56.40;;;;;;5053827;28;20123;-87
2021/10/08 09:40:57;;;;;;;4.25;2.72;;;12.40;56.10;;;;;;5051295;28;20021;-90
2021/10/08 09:43:28;;;;;;;3.53;3.00;;;12.60;56.20;;;;;;5052672;28;20045;-89
2021/10/08 09:45:56;;;;;;;5.50;2.38;;;12.80;55.40;;;;;;5036372;28;20034;-88
2021/10/08 09:48:25;;;;;;;2.85;2.10;;;12.90;54.90;;;;;;5054878;28;20025;-88
2021/10/08 09:50:58;;;;;;;15.63;3.63;;;12.90;54.20;;;;;;5054203;28;20053;-87
2021/10/08 09:53:24;;;;;;;5.40;2.30;;;13.00;53.70;;;;;;5054609;28;20474;-88
2021/10/08 09:55:52;;;;;;;5.93;2.55;;;13.10;53.60;;;;;;5054036;28;20119;-89
2021/10/08 09:58:24;;;;;;;3.88;2.03;;;13.20;53.30;;;;;;5055467;28;20014;-88
2021/10/08 10:01:01;;;;;;;7.18;2.65;;;13.20;53.10;;;;;;5053813;28;20490;-89
2021/10/08 10:03:30;;;;;;;1.92;1.60;;;13.30;52.60;;;;;;5054209;28;20048;-89
2021/10/08 10:06:00;;;;;;;10.85;2.80;;;13.30;52.50;;;;;;5054598;28;20047;-88
2021/10/08 10:08:27;;;;;;;4.22;2.63;;;13.30;51.50;;;;;;5056416;28;20429;-88
2021/10/08 10:10:54;;;;;;;6.15;2.70;;;13.30;51.30;;;;;;5054856;28;20033;-88
2021/10/08 10:13:22;;;;;;;7.55;3.38;;;13.20;51.40;;;;;;5055401;28;20024;-87
2021/10/08 10:15:49;;;;;;;3.97;3.33;;;13.20;51.10;;;;;;5054625;28;20044;-88
2021/10/08 10:18:17;;;;;;;3.72;2.78;;;13.20;50.90;;;;;;5055817;28;20020;-88
2021/10/08 10:20:48;;;;;;;5.60;2.55;;;13.20;50.60;;;;;;5053927;28;20121;-90
2021/10/08 10:23:16;;;;;;;5.03;2.38;;;13.40;50.50;;;;;;5053880;28;20025;-89
2021/10/08 10:25:44;;;;;;;4.90;2.42;;;13.40;50.20;;;;;;5055947;28;20021;-90
2021/10/08 10:28:10;;;;;;;6.53;2.65;;;13.50;49.70;;;;;;5066089;28;20098;-88
2021/10/08 10:30:37;;;;;;;7.60;2.38;;;13.40;50.20;;;;;;5053558;28;20486;-91
2021/10/08 10:33:04;;;;;;;9.10;2.90;;;13.40;50.20;;;;;;5052750;28;20055;-92
2021/10/08 10:35:50;;;;;;;5.28;2.85;;;13.30;50.10;;;;;;5066295;28;20029;-91
2021/10/08 10:38:37;;;;;;;9.52;2.40;;;13.30;50.20;;;;;;5079106;28;20362;-89
2021/10/08 10:41:09;;;;;;;6.80;2.70;;;13.30;50.10;;;;;;5045252;28;20054;-89
2021/10/08 10:43:43;;;;;;;4.85;3.17;;;13.30;49.70;;;;;;5054442;28;20051;-90
2021/10/08 10:46:26;;;;;;;8.90;3.33;;;13.20;49.90;;;;;;5049610;28;20025;-88
2021/10/08 10:52:00;;;;;;;3.42;2.25;;;13.40;49.70;;;;;;5047572;28;20033;-89
2021/10/08 10:54:37;;;;;;;6.10;2.50;;;13.40;49.40;;;;;;5057980;28;20353;-89
2021/10/08 10:57:19;;;;;;;3.88;2.70;;;13.30;49.40;;;;;;5054691;28;20036;-89
2021/10/08 10:59:45;;;;;;;3.95;2.50;;;13.30;49.70;;;;;;5053510;28;20044;-89
2021/10/08 11:02:16;;;;;;;7.22;2.97;;;13.30;49.80;;;;;;5052757;28;20025;-89
2021/10/08 11:04:49;;;;;;;7.13;2.53;;;13.40;49.90;;;;;;5049902;28;20043;-90
2021/10/08 11:07:17;;;;;;;3.60;2.38;;;13.30;50.10;;;;;;5045440;28;20032;-88
2021/10/08 11:10:07;;;;;;;3.17;2.30;;;13.30;50.20;;;;;;5048276;28;20128;-90
2021/10/08 11:12:38;;;;;;;5.72;2.60;;;13.30;49.50;;;;;;5049308;28;20013;-89
2021/10/08 11:15:16;;;;;;;5.38;2.72;;;13.30;50.50;;;;;;5054962;28;20064;-92
2021/10/08 11:17:54;;;;;;;7.05;3.25;;;13.40;50.10;;;;;;5050528;28;20025;-89
2021/10/08 11:20:29;;;;;;;5.45;3.03;;;13.40;49.90;;;;;;5052700;28;20033;-90
2021/10/08 11:22:57;;;;;;;3.97;2.88;;;13.50;49.70;;;;;;5052839;28;20016;-89
2021/10/08 11:25:23;;;;;;;6.90;2.85;;;13.70;49.10;;;;;;5036235;28;20399;-87
2021/10/08 11:27:50;;;;;;;4.97;2.63;;;13.80;49.20;;;;;;5047009;28;20017;-89
2021/10/08 11:30:16;;;;;;;4.07;3.05;;;13.90;49.10;;;;;;5046845;28;20033;-88
2021/10/08 11:32:54;;;;;;;4.40;3.03;;;14.00;48.80;;;;;;5054187;28;20047;-88
2021/10/08 11:35:32;;;;;;;5.55;3.13;;;14.00;48.50;;;;;;5053359;28;20324;-86
2021/10/08 11:37:59;;;;;;;6.07;3.17;;;14.10;48.60;;;;;;5052803;28;20029;-87
2021/10/08 11:40:29;;;;;;;5.60;3.13;;;14.10;48.40;;;;;;5052718;28;20110;-87
2021/10/08 11:42:59;;;;;;;4.45;2.72;;;14.10;48.40;;;;;;5054393;28;20070;-89
2021/10/08 11:45:48;;;;;;;7.30;3.33;;;14.20;48.80;;;;;;5054408;28;20040;-86
2021/10/08 11:48:29;;;;;;;3.85;2.92;;;14.30;48.10;;;;;;5054013;28;20021;-86
2021/10/08 11:51:03;;;;;;;5.10;3.40;;;14.20;48.10;;;;;;5055849;28;20125;-87
2021/10/08 11:53:46;;;;;;;4.45;3.17;;;14.20;47.80;;;;;;5061916;28;20457;-86
2021/10/08 11:56:26;;;;;;;7.95;3.50;;;14.10;47.80;;;;;;5062742;28;20032;-87
2021/10/08 11:58:54;;;;;;;5.65;4.00;;;14.10;47.90;;;;;;5050067;28;20047;-88
2021/10/08 12:01:22;;;;;;;6.05;2.95;;;14.00;47.90;;;;;;5041762;28;20099;-88
2021/10/08 12:03:48;;;;;;;3.58;3.13;;;14.00;48.20;;;;;;5053990;28;20066;-90
2021/10/08 12:06:32;;;;;;;7.55;4.38;;;14.00;48.10;;;;;;5067631;28;20364;-89
2021/10/08 12:09:04;;;;;;;5.88;3.65;;;14.00;47.70;;;;;;5041491;28;20041;-89
2021/10/08 12:11:31;;;;;;;6.38;3.60;;;14.00;48.00;;;;;;5042280;28;20048;-88
2021/10/08 12:14:07;;;;;;;9.18;3.78;;;14.00;47.70;;;;;;5057573;28;20021;-88
2021/10/08 12:16:40;;;;;;;4.90;3.05;;;13.90;47.50;;;;;;5062561;28;20025;-88
2021/10/08 12:19:07;;;;;;;5.65;3.80;;;14.00;47.50;;;;;;5057519;28;20023;-88
2021/10/08 12:21:42;;;;;;;5.60;3.95;;;13.90;46.90;;;;;;5054858;28;20135;-89
2021/10/08 12:24:13;;;;;;;5.05;4.22;;;13.90;46.50;;;;;;5036138;28;20025;-87
2021/10/08 12:26:51;;;;;;;6.10;3.85;;;13.90;46.40;;;;;;5043004;28;20052;-88
2021/10/08 12:29:17;;;;;;;7.35;4.70;;;13.90;46.10;;;;;;5037908;28;20017;-88
2021/10/08 12:31:56;;;;;;;9.18;5.18;;;13.90;46.30;;;;;;5050407;28;20379;-87
2021/10/08 12:34:56;;;;;;;9.43;5.10;;;13.90;45.70;;;;;;5052684;28;20017;-87
2021/10/08 12:37:31;;;;;;;11.85;5.60;;;13.80;46.10;;;;;;5002419;28;20033;-89
2021/10/08 12:40:04;;;;;;;14.70;6.35;;;13.80;45.90;;;;;;5053305;28;20123;-88
2021/10/08 12:42:35;;;;;;;7.07;5.00;;;13.70;45.90;;;;;;5052608;28;20029;-86
2021/10/08 12:45:01;;;;;;;5.40;4.05;;;13.70;46.00;;;;;;5050204;28;20079;-88
2021/10/08 12:47:38;;;;;;;6.32;4.80;;;13.60;46.00;;;;;;5051286;28;20021;-88
2021/10/08 12:50:13;;;;;;;7.40;4.40;;;13.50;46.10;;;;;;5052086;28;20045;-88
2021/10/08 12:52:45;;;;;;;8.45;4.90;;;13.50;46.40;;;;;;5053244;28;20095;-89
2021/10/08 12:55:15;;;;;;;9.65;4.82;;;13.50;46.40;;;;;;5052139;28;20021;-88
2021/10/08 12:58:02;;;;;;;11.93;4.75;;;13.50;46.60;;;;;;5053250;28;20057;-93
2021/10/08 13:00:40;;;;;;;6.65;3.70;;;13.40;46.40;;;;;;5054274;28;20029;-88